Time;durP1;ratioP1;P1;durP2;ratioP2;P2;SDS_P1;SDS_P2;PMS_P1;PMS_P2;Temp;Humidity;BMP_temperature;BMP_pressure;BME280_temperature;BME280_humidity;BME280_pressure;Samples;Min_cycle;Max_cycle;Signal;HPM_P1;HPM_P2
2020/12/20 00:01:53;;;;;;;18.90;6.13;;;8.80;99.90;;;;;;5018648;28;20029;-39
2020/12/20 00:04:19;;;;;;;18.58;4.45;;;8.80;99.90;;;;;;5039911;28;20043;-36
2020/12/20 00:06:46;;;;;;;26.15;4.72;;;8.80;99.90;;;;;;5035710;28;20040;-41
2020/12/20 00:09:20;;;;;;;35.42;6.32;;;8.80;99.90;;;;;;5011637;28;20393;-37
2020/12/20 00:11:48;;;;;;;19.98;5.05;;;8.80;99.90;;;;;;5006298;28;20437;-35
2020/12/20 00:14:34;;;;;;;9.50;3.00;;;8.80;99.90;;;;;;5010042;28;20057;-35
2020/12/20 00:17:10;;;;;;;9.57;3.33;;;8.80;99.90;;;;;;5029867;28;20029;-37
2020/12/20 00:19:36;;;;;;;16.63;5.53;;;8.80;99.90;;;;;;5010415;28;20494;-38
2020/12/20 00:22:13;;;;;;;23.33;4.70;;;8.80;99.90;;;;;;5024757;28;20398;-38
2020/12/20 00:24:42;;;;;;;16.08;5.25;;;8.80;99.90;;;;;;5040204;28;20035;-39
2020/12/20 00:27:10;;;;;;;18.65;5.45;;;8.80;99.90;;;;;;5040129;28;20167;-41
2020/12/20 00:29:37;;;;;;;17.55;5.40;;;8.80;99.90;;;;;;5046610;28;20123;-41
2020/12/20 00:32:04;;;;;;;17.73;5.85;;;8.80;99.90;;;;;;5045189;28;20032;-37
2020/12/20 00:34:30;;;;;;;12.48;6.07;;;8.80;99.90;;;;;;5041261;28;20029;-39
2020/12/20 00:36:56;;;;;;;20.10;6.20;;;8.80;99.90;;;;;;5033817;28;20076;-40
2020/12/20 00:39:22;;;;;;;16.60;6.30;;;8.80;99.90;;;;;;5053257;28;20075;-37
2020/12/20 00:41:53;;;;;;;15.32;6.13;;;8.80;99.90;;;;;;5044771;28;20509;-38
2020/12/20 00:44:20;;;;;;;22.90;7.27;;;8.80;99.90;;;;;;5034182;28;20045;-38
2020/12/20 00:46:46;;;;;;;16.50;6.38;;;8.80;99.90;;;;;;5053116;28;20068;-38
2020/12/20 00:49:12;;;;;;;15.30;5.93;;;8.70;99.90;;;;;;5051236;28;20048;-40
2020/12/20 00:51:38;;;;;;;18.05;5.93;;;8.70;99.90;;;;;;5039556;28;20383;-38
2020/12/20 00:54:04;;;;;;;14.38;5.85;;;8.80;99.90;;;;;;5054833;28;20033;-41
2020/12/20 00:56:29;;;;;;;20.50;4.68;;;8.80;99.90;;;;;;5052579;28;20059;-38
2020/12/20 00:58:55;;;;;;;18.85;6.47;;;8.80;99.90;;;;;;5053962;28;20045;-39
2020/12/20 01:01:22;;;;;;;17.75;4.90;;;8.80;99.90;;;;;;5034089;28;20025;-39
2020/12/20 01:03:47;;;;;;;10.90;4.43;;;8.70;99.90;;;;;;5032668;28;20040;-39
2020/12/20 01:06:23;;;;;;;15.38;5.28;;;8.80;99.90;;;;;;5052180;28;20079;-40
2020/12/20 01:08:49;;;;;;;20.58;6.55;;;8.80;99.90;;;;;;5052786;28;20035;-40
2020/12/20 01:11:16;;;;;;;15.35;6.55;;;8.70;99.90;;;;;;5046365;28;20060;-38
2020/12/20 01:13:49;;;;;;;16.40;5.53;;;8.80;99.90;;;;;;5054276;28;20061;-37
2020/12/20 01:16:26;;;;;;;22.35;5.45;;;8.80;99.90;;;;;;5035916;28;20401;-39
2020/12/20 01:18:56;;;;;;;20.30;5.78;;;8.80;99.90;;;;;;5046105;28;20386;-38
2020/12/20 01:21:22;;;;;;;26.60;7.95;;;8.90;99.90;;;;;;5053820;28;20061;-38
2020/12/20 01:23:47;;;;;;;21.58;7.15;;;8.80;99.90;;;;;;5046762;28;20037;-38
2020/12/20 01:26:14;;;;;;;17.50;6.43;;;8.80;99.90;;;;;;5048780;28;20079;-39
2020/12/20 01:28:39;;;;;;;25.05;6.55;;;8.80;99.90;;;;;;5052562;28;20021;-37
2020/12/20 01:31:07;;;;;;;20.20;6.03;;;8.80;99.90;;;;;;5026804;28;20091;-39
2020/12/20 01:33:36;;;;;;;19.35;5.60;;;8.80;99.90;;;;;;5024451;28;20652;-37
2020/12/20 01:36:09;;;;;;;22.45;6.55;;;8.70;99.90;;;;;;5025844;28;20037;-38
2020/12/20 01:38:35;;;;;;;26.77;6.75;;;8.70;99.90;;;;;;5034330;28;20116;-38
2020/12/20 01:41:02;;;;;;;26.70;5.80;;;8.70;99.90;;;;;;5052236;28;20059;-38
2020/12/20 01:43:46;;;;;;;17.58;5.97;;;8.70;99.90;;;;;;5050417;28;20095;-37
2020/12/20 01:46:14;;;;;;;19.20;5.65;;;8.70;99.90;;;;;;5044233;28;20497;-38
2020/12/20 01:48:40;;;;;;;17.90;6.07;;;8.70;99.90;;;;;;5046219;28;20033;-38
2020/12/20 01:51:07;;;;;;;16.33;6.05;;;8.70;99.90;;;;;;5042872;28;20036;-38
2020/12/20 01:53:34;;;;;;;20.45;6.32;;;8.70;99.90;;;;;;5045845;28;20521;-38
2020/12/20 01:56:02;;;;;;;31.13;6.15;;;8.70;99.90;;;;;;5052293;28;20072;-38
2020/12/20 01:58:29;;;;;;;26.17;6.63;;;8.70;99.90;;;;;;5047331;28;20409;-37
2020/12/20 02:00:55;;;;;;;11.23;4.25;;;8.80;99.90;;;;;;5050107;28;20033;-39
2020/12/20 02:03:24;;;;;;;30.65;6.82;;;8.80;99.90;;;;;;5053117;28;20033;-39
2020/12/20 02:05:51;;;;;;;12.82;3.80;;;8.80;99.90;;;;;;5047151;28;20033;-38
2020/12/20 02:08:18;;;;;;;17.67;6.90;;;8.90;99.90;;;;;;5042985;28;20067;-38
2020/12/20 02:10:43;;;;;;;11.40;3.75;;;8.90;99.90;;;;;;5049182;28;20504;-39
2020/12/20 02:13:09;;;;;;;23.48;6.35;;;8.90;99.90;;;;;;5051920;28;20108;-38
2020/12/20 02:15:35;;;;;;;24.23;5.90;;;8.80;99.90;;;;;;5050809;28;20116;-38
2020/12/20 02:18:00;;;;;;;13.27;5.28;;;8.90;99.90;;;;;;5034719;28;20112;-37
2020/12/20 02:20:26;;;;;;;23.15;6.30;;;8.80;99.90;;;;;;5047594;28;20048;-39
2020/12/20 02:22:56;;;;;;;21.50;5.95;;;8.80;99.90;;;;;;5033567;28;20029;-38
2020/12/20 02:25:22;;;;;;;18.67;6.18;;;8.80;99.90;;;;;;5050130;28;20036;-38
2020/12/20 02:27:48;;;;;;;17.60;5.90;;;8.80;99.90;;;;;;5052312;28;20037;-39
2020/12/20 02:30:13;;;;;;;11.60;3.05;;;8.90;99.90;;;;;;5051534;28;20390;-39
2020/12/20 02:32:39;;;;;;;18.35;5.28;;;8.90;99.90;;;;;;5048858;28;20021;-38
2020/12/20 02:35:04;;;;;;;16.98;4.95;;;8.90;99.90;;;;;;5036059;28;20029;-38
2020/12/20 02:37:30;;;;;;;18.60;5.00;;;8.90;99.90;;;;;;5035608;28;20131;-37
2020/12/20 02:39:56;;;;;;;20.13;6.32;;;8.90;99.90;;;;;;5046535;28;20040;-38
2020/12/20 02:42:21;;;;;;;23.70;6.50;;;8.90;99.90;;;;;;5045078;28;20037;-37
2020/12/20 02:44:47;;;;;;;18.67;5.05;;;8.90;99.90;;;;;;5032279;28;20055;-38
2020/12/20 02:47:12;;;;;;;11.57;3.67;;;9.00;99.90;;;;;;5022461;28;20075;-38
2020/12/20 02:49:38;;;;;;;16.33;5.10;;;9.00;99.90;;;;;;5036806;28;20044;-38
2020/12/20 02:52:03;;;;;;;18.27;5.35;;;9.10;99.90;;;;;;5045822;28;20036;-38
2020/12/20 02:54:29;;;;;;;20.95;6.20;;;9.10;99.90;;;;;;5043820;28;20144;-38
2020/12/20 02:56:54;;;;;;;21.52;5.72;;;9.10;99.90;;;;;;5048760;28;20041;-38
2020/12/20 02:59:20;;;;;;;20.65;5.72;;;9.10;99.90;;;;;;5043653;28;20501;-39
2020/12/20 03:01:46;;;;;;;20.85;5.72;;;9.10;99.90;;;;;;5026839;28;20044;-38
2020/12/20 03:04:11;;;;;;;22.38;5.20;;;9.20;99.90;;;;;;5049438;28;20033;-39
2020/12/20 03:06:37;;;;;;;18.38;5.45;;;9.20;99.90;;;;;;5049162;28;20052;-36
2020/12/20 03:09:02;;;;;;;21.95;5.32;;;9.20;99.90;;;;;;5043979;28;20056;-37
2020/12/20 03:11:28;;;;;;;25.15;6.68;;;9.20;99.90;;;;;;5050259;28;20032;-37
2020/12/20 03:13:53;;;;;;;11.90;3.78;;;9.10;99.90;;;;;;5033040;28;20049;-38
2020/12/20 03:16:19;;;;;;;25.52;5.85;;;9.20;99.90;;;;;;5044676;28;20025;-37
2020/12/20 03:18:45;;;;;;;13.40;3.70;;;9.10;99.90;;;;;;5036555;28;20037;-38
2020/12/20 03:21:11;;;;;;;15.23;6.07;;;9.10;99.90;;;;;;5039636;28;20458;-38
2020/12/20 03:23:36;;;;;;;24.25;6.20;;;9.10;99.90;;;;;;5047023;28;20501;-38
2020/12/20 03:26:03;;;;;;;18.90;5.32;;;9.10;99.90;;;;;;5043722;28;20108;-37
2020/12/20 03:28:28;;;;;;;19.65;5.70;;;9.00;99.90;;;;;;5033817;28;20322;-37
2020/12/20 03:30:54;;;;;;;22.70;6.50;;;8.90;99.90;;;;;;5031266;28;20034;-38
2020/12/20 03:33:19;;;;;;;9.50;2.92;;;8.90;99.90;;;;;;5037904;28;20039;-38
2020/12/20 03:35:45;;;;;;;19.25;6.35;;;8.90;99.90;;;;;;5045443;28;20033;-40
2020/12/20 03:38:11;;;;;;;20.35;5.05;;;8.90;99.90;;;;;;5050609;28;20478;-38
2020/12/20 03:40:37;;;;;;;21.40;5.53;;;8.90;99.90;;;;;;5049687;28;20029;-38
2020/12/20 03:43:03;;;;;;;20.42;5.93;;;8.90;99.90;;;;;;5044893;28;20056;-37
2020/12/20 03:45:29;;;;;;;18.75;5.30;;;8.80;99.90;;;;;;5033500;28;20122;-39
2020/12/20 03:47:54;;;;;;;26.25;5.72;;;8.80;99.90;;;;;;5047129;28;20507;-42
2020/12/20 03:50:20;;;;;;;12.85;4.55;;;8.80;99.90;;;;;;5024449;28;20037;-38
2020/12/20 03:52:45;;;;;;;18.55;5.53;;;8.80;99.90;;;;;;5039313;28;20456;-38
2020/12/20 03:55:11;;;;;;;20.95;5.65;;;8.70;99.90;;;;;;5049276;28;20346;-39
2020/12/20 03:57:36;;;;;;;22.48;5.10;;;8.70;99.90;;;;;;5052164;28;20067;-38
2020/12/20 04:00:05;;;;;;;18.48;5.38;;;8.60;99.90;;;;;;5050192;28;20049;-40
2020/12/20 04:02:30;;;;;;;21.13;4.88;;;8.60;99.90;;;;;;5050936;28;20056;-39
2020/12/20 04:04:56;;;;;;;14.48;5.10;;;8.60;99.90;;;;;;5049018;28;20065;-38
2020/12/20 04:07:21;;;;;;;19.17;5.68;;;8.60;99.90;;;;;;5049431;28;20056;-39
2020/12/20 04:09:47;;;;;;;16.13;5.10;;;8.60;99.90;;;;;;5050220;28;20029;-39
2020/12/20 04:12:13;;;;;;;20.95;6.88;;;8.50;99.90;;;;;;5041081;28;20437;-38
2020/12/20 04:14:39;;;;;;;11.90;3.00;;;8.50;99.90;;;;;;5042354;28;20029;-38
2020/12/20 04:17:04;;;;;;;20.48;5.53;;;8.50;99.90;;;;;;5046411;28;20033;-39
2020/12/20 04:19:30;;;;;;;17.38;4.60;;;8.50;99.90;;;;;;5047641;28;20458;-38
2020/12/20 04:21:55;;;;;;;15.95;5.20;;;8.40;99.90;;;;;;5045207;28;20037;-40
2020/12/20 04:24:21;;;;;;;8.10;3.00;;;8.40;99.90;;;;;;5049796;28;20083;-42
2020/12/20 04:26:47;;;;;;;20.30;5.00;;;8.40;99.90;;;;;;5048377;28;20440;-40
2020/12/20 04:29:12;;;;;;;32.25;8.00;;;8.30;99.90;;;;;;5050326;28;20482;-40
2020/12/20 04:31:38;;;;;;;15.10;4.95;;;8.40;99.90;;;;;;5049054;28;20448;-38
2020/12/20 04:34:04;;;;;;;20.85;4.85;;;8.40;99.90;;;;;;5051079;28;20029;-38
2020/12/20 04:36:30;;;;;;;28.23;5.68;;;8.40;99.90;;;;;;5044758;28;20032;-40
2020/12/20 04:38:56;;;;;;;28.85;6.10;;;8.30;99.90;;;;;;5031775;28;20037;-39
2020/12/20 04:41:25;;;;;;;20.20;4.53;;;8.40;99.90;;;;;;5050207;28;20029;-41
2020/12/20 04:43:51;;;;;;;22.95;4.30;;;8.40;99.90;;;;;;5050464;28;20108;-42
2020/12/20 04:46:18;;;;;;;27.58;5.20;;;8.30;99.90;;;;;;5022208;28;20036;-40
2020/12/20 04:48:45;;;;;;;26.27;3.75;;;8.30;99.90;;;;;;5031775;28;20037;-39
2020/12/20 04:51:12;;;;;;;22.63;4.90;;;8.30;99.90;;;;;;5038015;28;20101;-41
2020/12/20 04:53:38;;;;;;;20.65;4.80;;;8.40;99.90;;;;;;5033122;28;20095;-37
2020/12/20 04:56:08;;;;;;;33.65;4.88;;;8.30;99.90;;;;;;5029276;28;20107;-38
2020/12/20 04:58:35;;;;;;;35.90;6.77;;;8.40;99.90;;;;;;5035677;28;20022;-38
2020/12/20 05:01:01;;;;;;;28.13;6.53;;;8.30;99.90;;;;;;5030803;28;20091;-38
2020/12/20 05:03:28;;;;;;;23.70;4.68;;;8.30;99.90;;;;;;5049874;28;20037;-38
2020/12/20 05:05:54;;;;;;;14.93;4.13;;;8.30;99.90;;;;;;5022744;28;20103;-39
2020/12/20 05:08:21;;;;;;;19.92;4.72;;;8.30;99.90;;;;;;5047124;28;20482;-39
2020/12/20 05:10:48;;;;;;;23.42;4.35;;;8.20;99.90;;;;;;5048589;28;20061;-38
2020/12/20 05:13:14;;;;;;;21.25;4.85;;;8.20;99.90;;;;;;5054639;28;20033;-39
2020/12/20 05:15:39;;;;;;;17.95;4.03;;;8.20;99.90;;;;;;5052753;28;20095;-38
2020/12/20 05:18:07;;;;;;;23.38;5.50;;;8.20;99.90;;;;;;5053115;28;20025;-40
2020/12/20 05:20:43;;;;;;;19.13;4.18;;;8.20;99.90;;;;;;5052341;28;20496;-40
2020/12/20 05:23:10;;;;;;;19.67;5.47;;;8.20;99.90;;;;;;5052639;28;20041;-40
2020/12/20 05:25:37;;;;;;;22.35;6.53;;;8.20;99.90;;;;;;5051459;28;20055;-40
2020/12/20 05:28:09;;;;;;;20.83;5.10;;;8.10;99.90;;;;;;5053515;28;20029;-40
2020/12/20 05:30:35;;;;;;;17.88;4.43;;;8.10;99.90;;;;;;5021392;28;20147;-39
2020/12/20 05:33:01;;;;;;;22.00;5.47;;;8.10;99.90;;;;;;5053303;28;20090;-38
2020/12/20 05:35:27;;;;;;;21.73;4.75;;;8.10;99.90;;;;;;5049197;28;20077;-39
2020/12/20 05:37:53;;;;;;;23.30;4.70;;;8.10;99.90;;;;;;5046234;28;20459;-38
2020/12/20 05:40:31;;;;;;;18.13;3.75;;;8.10;99.90;;;;;;5044885;28;20029;-38
2020/12/20 05:42:58;;;;;;;28.70;5.10;;;8.10;99.90;;;;;;5041737;28;20406;-38
2020/12/20 05:45:29;;;;;;;19.40;4.93;;;8.10;99.90;;;;;;5049355;28;20025;-39
2020/12/20 05:47:55;;;;;;;17.47;5.13;;;8.10;99.90;;;;;;5041715;28;20034;-38
2020/12/20 05:50:26;;;;;;;21.20;4.35;;;8.00;99.90;;;;;;5048423;28;20035;-38
2020/12/20 05:53:03;;;;;;;13.75;3.78;;;8.10;99.90;;;;;;5042480;28;20040;-39
2020/12/20 05:55:39;;;;;;;21.85;5.47;;;8.10;99.90;;;;;;5034714;28;20033;-36
2020/12/20 05:58:15;;;;;;;21.25;4.90;;;8.10;99.90;;;;;;5026039;28;20111;-38
2020/12/20 06:00:42;;;;;;;23.50;4.38;;;8.10;99.90;;;;;;5051141;28;20120;-38
2020/12/20 06:03:09;;;;;;;23.70;5.15;;;8.10;99.90;;;;;;5048921;28;20034;-38
2020/12/20 06:05:44;;;;;;;25.25;4.32;;;8.10;99.90;;;;;;5024439;28;20464;-39
2020/12/20 06:08:12;;;;;;;12.68;3.97;;;8.10;99.90;;;;;;5053561;28;20065;-38
2020/12/20 06:10:44;;;;;;;22.80;3.40;;;8.10;99.90;;;;;;5048330;28;20405;-39
2020/12/20 06:13:21;;;;;;;23.67;4.93;;;8.10;99.90;;;;;;5048300;28;20032;-38
2020/12/20 06:15:55;;;;;;;22.40;4.70;;;8.10;99.90;;;;;;5044212;28;20043;-38
2020/12/20 06:18:28;;;;;;;22.27;5.72;;;8.10;99.90;;;;;;5039540;28;20033;-39
2020/12/20 06:21:04;;;;;;;22.10;4.80;;;8.10;99.90;;;;;;5050972;28;20027;-39
2020/12/20 06:23:34;;;;;;;13.55;3.25;;;8.00;99.90;;;;;;5017365;28;20021;-36
2020/12/20 06:26:02;;;;;;;26.27;4.18;;;8.00;99.90;;;;;;5027715;28;20029;-37
2020/12/20 06:28:30;;;;;;;23.42;4.65;;;8.10;99.90;;;;;;5053078;28;20056;-37
2020/12/20 06:30:57;;;;;;;17.25;4.85;;;8.10;99.90;;;;;;5047520;28;20033;-38
2020/12/20 06:33:49;;;;;;;14.55;3.97;;;8.00;99.90;;;;;;5033628;28;20026;-38
2020/12/20 06:36:15;;;;;;;;;;;8.10;99.90;;;;;;5024072;28;20033;-39
2020/12/20 06:38:51;;;;;;;23.17;5.13;;;8.00;99.90;;;;;;5049297;28;19915;-38
2020/12/20 06:41:36;;;;;;;14.80;4.43;;;8.00;99.90;;;;;;5029140;28;20040;-37
2020/12/20 06:44:15;;;;;;;20.15;4.63;;;8.00;99.90;;;;;;5052528;28;20473;-36
2020/12/20 06:46:42;;;;;;;22.65;4.35;;;8.00;99.90;;;;;;5039325;28;20025;-37
2020/12/20 06:49:31;;;;;;;28.67;6.50;;;7.90;99.90;;;;;;5048855;28;20025;-39
2020/12/20 06:52:27;;;;;;;14.27;4.35;;;8.00;99.90;;;;;;5055837;28;20039;-36
2020/12/20 06:55:19;;;;;;;19.67;5.43;;;8.00;99.90;;;;;;5038311;28;20045;-37
2020/12/20 06:58:03;;;;;;;16.52;4.72;;;8.00;99.90;;;;;;5054657;28;20049;-38
2020/12/20 07:00:41;;;;;;;20.75;4.55;;;8.00;99.90;;;;;;5040267;28;20080;-39
2020/12/20 07:03:08;;;;;;;21.80;4.82;;;7.90;99.90;;;;;;5058949;28;20107;-38
2020/12/20 07:05:44;;;;;;;23.20;4.43;;;7.90;99.90;;;;;;5055188;28;20029;-38
2020/12/20 07:08:24;;;;;;;19.52;4.40;;;7.90;99.90;;;;;;5051821;28;20401;-37
2020/12/20 07:10:55;;;;;;;24.98;4.60;;;7.90;99.90;;;;;;5051621;28;20033;-39
2020/12/20 07:13:32;;;;;;;25.27;4.20;;;7.90;99.90;;;;;;5032322;28;20108;-38
2020/12/20 07:16:07;;;;;;;19.65;4.78;;;7.90;99.90;;;;;;5050598;28;20106;-39
2020/12/20 07:18:53;;;;;;;16.10;3.85;;;7.80;99.90;;;;;;5049894;28;20024;-43
2020/12/20 07:21:19;;;;;;;25.02;4.13;;;7.90;99.90;;;;;;5050860;28;20021;-38
2020/12/20 07:23:52;;;;;;;22.30;5.32;;;7.80;99.90;;;;;;5051585;28;20047;-39
2020/12/20 07:26:18;;;;;;;24.15;5.05;;;7.70;99.90;;;;;;5050479;28;20115;-39
2020/12/20 07:28:44;;;;;;;31.30;5.97;;;7.70;99.90;;;;;;5049536;28;20519;-40
2020/12/20 07:31:20;;;;;;;19.75;5.85;;;7.70;99.90;;;;;;5051268;28;20029;-38
2020/12/20 07:33:47;;;;;;;14.07;3.92;;;7.80;99.90;;;;;;5050193;28;20033;-39
2020/12/20 07:36:13;;;;;;;21.77;4.82;;;7.80;99.90;;;;;;5050114;28;20083;-38
2020/12/20 07:38:39;;;;;;;22.50;4.88;;;7.70;99.90;;;;;;5050405;28;20033;-38
2020/12/20 07:41:16;;;;;;;20.77;4.72;;;7.70;99.90;;;;;;5049746;28;20385;-38
2020/12/20 07:43:46;;;;;;;25.08;4.63;;;7.70;99.90;;;;;;5046388;28;20108;-38
2020/12/20 07:46:12;;;;;;;17.17;4.32;;;7.70;99.90;;;;;;5050121;28;20029;-39
2020/12/20 07:48:39;;;;;;;20.17;5.50;;;7.70;99.90;;;;;;5045515;28;20494;-39
2020/12/20 07:51:14;;;;;;;25.02;4.93;;;7.70;99.90;;;;;;5046202;28;21658;-37
2020/12/20 07:53:55;;;;;;;20.85;4.30;;;7.60;99.90;;;;;;5033912;28;20497;-41
2020/12/20 07:56:33;;;;;;;19.63;4.72;;;7.70;99.90;;;;;;5041148;28;20628;-41
2020/12/20 07:59:05;;;;;;;24.05;5.45;;;7.60;99.90;;;;;;5045015;28;20072;-38
2020/12/20 08:01:31;;;;;;;;;;;7.60;99.90;;;;;;5034352;28;20021;-40
2020/12/20 08:04:04;;;;;;;17.95;4.90;;;7.60;99.90;;;;;;5028567;28;19923;-41
2020/12/20 08:06:32;;;;;;;35.15;5.82;;;7.50;99.90;;;;;;5028444;28;20044;-42
2020/12/20 08:09:04;;;;;;;28.15;5.53;;;7.50;99.90;;;;;;5031247;28;20044;-41
2020/12/20 08:11:30;;;;;;;29.23;5.40;;;7.50;99.90;;;;;;5045299;28;20432;-40
2020/12/20 08:14:01;;;;;;;10.63;3.85;;;7.50;99.90;;;;;;5049727;28;20033;-41
2020/12/20 08:16:32;;;;;;;23.63;4.70;;;7.50;99.90;;;;;;5047754;28;20504;-40
2020/12/20 08:19:18;;;;;;;34.33;5.35;;;7.50;99.90;;;;;;5008134;28;20029;-42
2020/12/20 08:22:17;;;;;;;25.70;4.63;;;7.50;99.90;;;;;;5030360;28;20041;-41
2020/12/20 08:24:46;;;;;;;22.05;5.32;;;7.50;99.90;;;;;;5045172;28;20032;-43
2020/12/20 08:27:15;;;;;;;25.17;4.90;;;7.40;99.90;;;;;;5048057;28;20032;-45
2020/12/20 08:29:43;;;;;;;25.10;4.60;;;7.40;99.90;;;;;;5042905;28;20127;-39
2020/12/20 08:32:11;;;;;;;33.28;5.68;;;7.40;99.90;;;;;;5040044;28;20448;-39
2020/12/20 08:34:36;;;;;;;34.85;4.90;;;7.40;99.90;;;;;;5042471;28;20389;-44
2020/12/20 08:37:08;;;;;;;26.92;6.00;;;7.40;99.90;;;;;;5031372;28;20532;-40
2020/12/20 08:39:34;;;;;;;;;;;7.40;99.90;;;;;;5051179;28;20025;-41
2020/12/20 08:42:04;;;;;;;21.35;4.55;;;7.40;99.90;;;;;;5033612;28;19950;-41
2020/12/20 08:44:30;;;;;;;24.13;5.63;;;7.30;99.90;;;;;;5051497;28;20037;-41
2020/12/20 08:47:16;;;;;;;22.90;4.28;;;7.30;99.90;;;;;;5049464;28;20029;-39
2020/12/20 08:49:55;;;;;;;22.90;7.00;;;7.30;99.90;;;;;;5051448;28;20156;-40
2020/12/20 08:52:21;;;;;;;18.88;6.60;;;7.30;99.90;;;;;;5051276;28;20074;-41
2020/12/20 08:54:51;;;;;;;25.00;5.30;;;7.40;99.90;;;;;;5048437;28;20029;-41
2020/12/20 08:57:17;;;;;;;20.30;5.22;;;7.30;99.90;;;;;;5043499;28;20055;-40
2020/12/20 08:59:45;;;;;;;28.58;6.30;;;7.30;99.90;;;;;;5029266;28;20052;-42
2020/12/20 09:02:24;;;;;;;19.08;7.47;;;7.30;99.90;;;;;;5030949;28;20029;-44
2020/12/20 09:05:10;;;;;;;26.63;6.22;;;7.30;99.90;;;;;;5030893;28;20029;-39
2020/12/20 09:07:37;;;;;;;27.15;6.05;;;7.30;99.90;;;;;;5028490;28;20025;-41
2020/12/20 09:10:06;;;;;;;31.75;6.28;;;7.30;99.90;;;;;;5032453;28;20037;-40
2020/12/20 09:12:31;;;;;;;23.05;6.38;;;7.30;99.90;;;;;;5032133;28;20033;-44
2020/12/20 09:15:05;;;;;;;22.88;6.03;;;7.40;99.90;;;;;;5029846;28;20064;-40
2020/12/20 09:17:36;;;;;;;24.65;5.78;;;7.40;99.90;;;;;;5031499;28;20065;-40
2020/12/20 09:20:04;;;;;;;23.10;7.50;;;7.40;99.90;;;;;;5032413;28;20466;-45
2020/12/20 09:22:50;;;;;;;31.52;7.95;;;7.50;99.90;;;;;;5031737;28;20082;-42
2020/12/20 09:25:36;;;;;;;25.58;6.82;;;7.50;99.90;;;;;;5020701;28;20037;-39
2020/12/20 09:28:04;;;;;;;30.45;7.22;;;7.60;99.90;;;;;;5026239;28;20474;-40
2020/12/20 09:31:06;;;;;;;33.88;6.70;;;7.60;99.90;;;;;;5037728;28;20481;-38
2020/12/20 09:33:34;;;;;;;36.80;7.00;;;7.70;99.90;;;;;;4993379;28;20026;-38
2020/12/20 09:36:08;;;;;;;30.25;7.30;;;7.80;99.90;;;;;;4976108;28;20121;-40
2020/12/20 09:38:46;;;;;;;22.55;5.90;;;7.80;99.90;;;;;;4994030;28;20039;-40
2020/12/20 09:41:25;;;;;;;26.63;7.63;;;7.90;99.90;;;;;;4992619;28;20133;-39
2020/12/20 09:43:53;;;;;;;14.80;5.32;;;7.90;99.90;;;;;;4981046;28;20039;-42
2020/12/20 09:46:31;;;;;;;31.35;6.75;;;8.00;99.90;;;;;;4978080;28;20038;-41
2020/12/20 09:48:57;;;;;;;30.05;6.65;;;8.00;99.90;;;;;;4979034;28;20052;-39
2020/12/20 09:51:24;;;;;;;22.05;6.95;;;8.10;99.90;;;;;;4973117;28;20026;-41
2020/12/20 09:53:50;;;;;;;24.65;6.65;;;8.10;99.90;;;;;;4957007;28;20061;-41
2020/12/20 09:56:17;;;;;;;23.83;7.00;;;8.20;99.90;;;;;;4977209;28;20034;-40
2020/12/20 09:58:43;;;;;;;25.40;7.00;;;8.20;99.90;;;;;;4958186;28;20039;-38
2020/12/20 10:01:16;;;;;;;18.80;5.43;;;8.30;99.90;;;;;;4979039;28;20440;-41
2020/12/20 10:03:41;;;;;;;21.60;3.65;;;8.40;99.90;;;;;;4971891;28;20027;-40
2020/12/20 10:06:07;;;;;;;17.38;5.25;;;8.30;99.90;;;;;;4981346;28;20138;-42
2020/12/20 10:08:32;;;;;;;14.95;3.97;;;8.40;99.90;;;;;;5022703;28;20041;-40
2020/12/20 10:10:58;;;;;;;17.20;4.80;;;8.50;99.90;;;;;;5033804;28;20478;-40
2020/12/20 10:13:24;;;;;;;16.40;6.07;;;8.50;99.90;;;;;;5030794;28;20092;-40
2020/12/20 10:15:49;;;;;;;13.07;3.85;;;8.60;99.90;;;;;;5030934;28;20029;-41
2020/12/20 10:18:15;;;;;;;27.15;5.53;;;8.60;99.90;;;;;;5032120;28;20552;-40
2020/12/20 10:20:41;;;;;;;28.58;5.68;;;8.60;99.90;;;;;;5025024;28;20042;-41
2020/12/20 10:23:07;;;;;;;25.13;5.80;;;8.60;99.90;;;;;;5030963;28;20030;-43
2020/12/20 10:25:33;;;;;;;22.50;4.97;;;8.70;99.90;;;;;;5032722;28;20405;-39
2020/12/20 10:27:59;;;;;;;25.55;5.65;;;8.70;99.90;;;;;;5031563;28;20493;-39
2020/12/20 10:30:25;;;;;;;24.58;6.50;;;8.80;99.90;;;;;;5032426;28;21507;-41
2020/12/20 10:32:51;;;;;;;24.13;5.68;;;8.80;99.90;;;;;;5028363;28;20037;-40
2020/12/20 10:35:18;;;;;;;16.02;4.43;;;8.90;99.90;;;;;;5030078;28;20072;-38
2020/12/20 10:37:44;;;;;;;21.85;5.15;;;9.00;99.90;;;;;;5028527;28;20057;-42
2020/12/20 10:40:10;;;;;;;20.27;4.72;;;9.00;99.90;;;;;;5030540;28;20088;-40
2020/12/20 10:42:35;;;;;;;16.23;5.30;;;9.10;99.90;;;;;;5031545;28;20084;-39
2020/12/20 10:45:02;;;;;;;17.80;4.22;;;9.10;99.90;;;;;;5032870;28;20034;-38
2020/12/20 10:47:27;;;;;;;18.80;4.18;;;9.20;99.90;;;;;;5022322;28;20096;-40
2020/12/20 10:49:53;;;;;;;13.48;3.85;;;9.20;99.90;;;;;;5028964;28;20470;-40
2020/12/20 10:52:18;;;;;;;24.48;4.65;;;9.20;99.90;;;;;;5030747;28;20040;-39
2020/12/20 10:54:44;;;;;;;21.98;4.30;;;9.30;99.90;;;;;;5031861;28;20022;-40
2020/12/20 10:57:10;;;;;;;14.13;3.65;;;9.30;99.90;;;;;;5032297;28;20041;-40
2020/12/20 10:59:36;;;;;;;26.55;5.00;;;9.40;99.90;;;;;;5039591;28;20048;-39
2020/12/20 11:02:02;;;;;;;19.40;4.22;;;9.40;99.90;;;;;;5029604;28;20064;-39
2020/12/20 11:04:28;;;;;;;18.90;4.25;;;9.40;99.90;;;;;;5027872;28;20029;-42
2020/12/20 11:06:55;;;;;;;17.30;4.40;;;9.50;99.90;;;;;;5043961;28;20399;-38
2020/12/20 11:09:21;;;;;;;18.67;5.85;;;9.50;99.90;;;;;;5052174;28;20424;-43
2020/12/20 11:11:47;;;;;;;18.08;4.30;;;9.60;99.90;;;;;;5030152;28;20037;-39
2020/12/20 11:14:12;;;;;;;23.73;6.32;;;9.60;99.90;;;;;;5050033;28;20166;-42
2020/12/20 11:16:38;;;;;;;13.73;3.10;;;9.70;99.90;;;;;;5047478;28;20040;-39
2020/12/20 11:19:03;;;;;;;25.75;4.82;;;9.70;99.90;;;;;;5052079;28;20473;-38
2020/12/20 11:21:29;;;;;;;21.17;3.78;;;9.70;99.90;;;;;;5048737;28;20489;-41
2020/12/20 11:23:54;;;;;;;25.23;4.18;;;9.80;99.90;;;;;;5049996;28;20029;-39
2020/12/20 11:26:22;;;;;;;17.40;4.20;;;9.80;99.90;;;;;;5051709;28;20029;-43
2020/12/20 11:28:50;;;;;;;23.65;5.13;;;9.90;99.90;;;;;;5051744;28;20037;-39
2020/12/20 11:31:19;;;;;;;24.70;4.95;;;9.90;99.90;;;;;;5032893;28;20033;-41
2020/12/20 11:33:45;;;;;;;13.20;3.15;;;10.00;99.90;;;;;;5048895;28;20052;-42
2020/12/20 11:36:18;;;;;;;21.52;4.00;;;10.10;99.90;;;;;;5050565;28;20037;-40
2020/12/20 11:38:44;;;;;;;17.23;3.92;;;10.10;99.90;;;;;;5050158;28;20021;-45
2020/12/20 11:41:09;;;;;;;17.35;3.53;;;10.20;99.90;;;;;;5043717;28;20079;-39
2020/12/20 11:43:35;;;;;;;16.98;4.25;;;10.30;99.90;;;;;;5043616;28;20095;-37
2020/12/20 11:46:01;;;;;;;21.85;4.22;;;10.30;99.90;;;;;;5042946;28;20040;-43
2020/12/20 11:48:26;;;;;;;31.50;8.07;;;10.30;99.90;;;;;;5042216;28;20037;-43
2020/12/20 11:50:52;;;;;;;22.27;3.90;;;10.30;99.90;;;;;;5041520;28;20120;-40
2020/12/20 11:53:18;;;;;;;14.52;3.42;;;10.10;99.90;;;;;;5041001;28;20377;-39
2020/12/20 11:55:43;;;;;;;20.10;3.75;;;10.00;99.90;;;;;;5027405;28;20033;-37
2020/12/20 11:58:13;;;;;;;21.77;4.15;;;10.00;99.90;;;;;;5042765;28;20033;-38
2020/12/20 12:00:43;;;;;;;23.55;4.45;;;10.00;99.90;;;;;;5024044;28;20044;-42
2020/12/20 12:03:10;;;;;;;21.65;4.53;;;9.90;99.90;;;;;;5025029;28;20029;-39
2020/12/20 12:05:37;;;;;;;19.15;4.10;;;9.90;99.90;;;;;;5045806;28;20044;-42
2020/12/20 12:08:03;;;;;;;19.05;4.13;;;9.90;99.90;;;;;;5018876;28;20359;-38
2020/12/20 12:10:47;;;;;;;25.88;4.60;;;9.80;99.90;;;;;;5042573;28;20059;-42
2020/12/20 12:13:13;;;;;;;15.32;3.05;;;9.80;99.90;;;;;;5041358;28;20121;-43
2020/12/20 12:15:40;;;;;;;20.00;4.50;;;9.80;99.90;;;;;;5041130;28;20465;-43
2020/12/20 12:18:05;;;;;;;22.95;4.30;;;9.80;99.90;;;;;;5022643;28;20025;-50
2020/12/20 12:20:31;;;;;;;18.27;4.05;;;9.80;99.90;;;;;;5041834;28;20061;-41
2020/12/20 12:22:57;;;;;;;16.67;3.55;;;9.70;99.90;;;;;;5041319;28;20106;-39
2020/12/20 12:25:23;;;;;;;18.48;3.50;;;9.70;99.90;;;;;;5042787;28;20032;-44
2020/12/20 12:27:48;;;;;;;12.13;3.13;;;9.70;99.90;;;;;;5042054;28;20029;-44
2020/12/20 12:30:14;;;;;;;18.65;3.15;;;9.70;99.90;;;;;;5041785;28;20753;-43
2020/12/20 12:32:40;;;;;;;18.88;3.47;;;9.70;99.90;;;;;;5041795;28;20064;-47
2020/12/20 12:35:07;;;;;;;23.80;3.75;;;9.70;99.90;;;;;;5046583;28;20090;-43
2020/12/20 12:37:33;;;;;;;18.60;3.90;;;9.60;99.90;;;;;;5041150;28;20044;-44
2020/12/20 12:39:58;;;;;;;18.90;3.90;;;9.70;99.90;;;;;;5041612;28;20039;-43
2020/12/20 12:42:24;;;;;;;20.33;3.50;;;9.70;99.90;;;;;;5023937;28;20474;-49
2020/12/20 12:44:50;;;;;;;14.55;3.80;;;9.70;99.90;;;;;;5024531;28;20034;-40
2020/12/20 12:47:16;;;;;;;23.42;4.75;;;9.70;99.90;;;;;;5042267;28;20056;-44
2020/12/20 12:49:41;;;;;;;18.33;3.90;;;9.70;99.90;;;;;;5039132;28;20037;-44
2020/12/20 12:52:08;;;;;;;22.02;4.10;;;9.60;99.90;;;;;;5040465;28;20033;-39
2020/12/20 12:54:33;;;;;;;25.25;4.97;;;9.60;99.90;;;;;;5026367;28;20021;-43
2020/12/20 12:57:00;;;;;;;24.77;5.43;;;9.60;99.90;;;;;;5047264;28;20055;-42